createdAt,value
2017-10-24T00:00:20.178Z,11.33
2017-10-24T00:02:48.117Z,11.30
2017-10-24T00:05:16.072Z,10.97
2017-10-24T00:07:44.033Z,11.00
2017-10-24T00:10:11.982Z,14.30
2017-10-24T00:12:39.908Z,10.60
2017-10-24T00:15:07.859Z,12.30
2017-10-24T00:17:35.828Z,11.40
2017-10-24T00:20:03.892Z,12.40
2017-10-24T00:22:32.119Z,13.10
2017-10-24T00:25:00.047Z,13.37
2017-10-24T00:27:27.955Z,11.77
2017-10-24T00:29:56.184Z,11.90
2017-10-24T00:32:24.112Z,13.50
2017-10-24T00:34:52.054Z,13.00
2017-10-24T00:37:19.995Z,12.13
2017-10-24T00:39:47.972Z,11.77
2017-10-24T00:42:15.917Z,11.30
2017-10-24T00:44:43.938Z,11.13
2017-10-24T00:47:11.877Z,11.80
2017-10-24T00:49:39.826Z,15.43
2017-10-24T00:52:07.802Z,11.00
2017-10-24T00:54:35.731Z,10.90
2017-10-24T00:57:03.670Z,11.03
2017-10-24T00:59:31.619Z,9.20
2017-10-24T01:02:00.304Z,12.43
2017-10-24T01:04:28.244Z,9.60
2017-10-24T01:06:56.230Z,10.67
2017-10-24T01:09:24.858Z,12.17
2017-10-24T01:11:52.799Z,11.43
2017-10-24T01:14:20.743Z,9.50
2017-10-24T01:16:48.695Z,10.33
2017-10-24T01:19:16.632Z,10.90
2017-10-24T01:21:44.599Z,10.30
2017-10-24T01:24:12.533Z,10.20
2017-10-24T01:26:40.509Z,10.43
2017-10-24T01:29:08.455Z,12.17
2017-10-24T01:31:36.394Z,13.17
2017-10-24T01:34:04.313Z,11.83
2017-10-24T01:36:32.281Z,11.90
2017-10-24T01:39:00.210Z,12.30
2017-10-24T01:41:28.149Z,12.33
2017-10-24T01:43:56.247Z,11.23
2017-10-24T01:46:24.201Z,10.97
2017-10-24T01:48:52.133Z,15.07
2017-10-24T01:51:20.166Z,13.53
2017-10-24T01:53:48.107Z,12.83
2017-10-24T01:56:16.035Z,12.03
2017-10-24T01:58:44.014Z,14.10
2017-10-24T02:01:11.972Z,11.53
2017-10-24T02:03:39.934Z,10.17
2017-10-24T02:06:08.832Z,10.73
2017-10-24T02:08:36.822Z,10.80
2017-10-24T02:11:04.766Z,13.90
2017-10-24T02:13:32.706Z,10.20
2017-10-24T02:16:00.663Z,17.77
2017-10-24T02:18:28.602Z,10.37
2017-10-24T02:20:56.527Z,10.13
2017-10-24T02:23:24.470Z,11.53
2017-10-24T02:25:52.492Z,12.43
2017-10-24T02:28:20.444Z,10.00
2017-10-24T02:30:48.359Z,10.53
2017-10-24T02:33:16.309Z,10.70
2017-10-24T02:35:44.249Z,10.77
2017-10-24T02:38:12.189Z,12.10
2017-10-24T02:40:40.116Z,12.70
2017-10-24T02:43:08.027Z,9.57
2017-10-24T02:45:35.975Z,10.27
2017-10-24T02:48:03.932Z,10.50
2017-10-24T02:50:31.878Z,10.17
2017-10-24T02:52:59.813Z,8.93
2017-10-24T02:55:27.724Z,9.97
2017-10-24T02:57:55.665Z,9.90
2017-10-24T03:00:23.567Z,10.70
2017-10-24T03:02:51.503Z,9.93
2017-10-24T03:05:19.433Z,9.70
2017-10-24T03:07:47.433Z,8.77
2017-10-24T03:10:16.034Z,11.73
2017-10-24T03:12:43.986Z,8.63
2017-10-24T03:15:11.998Z,12.60
2017-10-24T03:17:39.931Z,11.27
2017-10-24T03:20:07.871Z,10.13
2017-10-24T03:22:35.802Z,11.50
2017-10-24T03:25:03.741Z,10.73
2017-10-24T03:27:31.675Z,11.10
2017-10-24T03:29:59.682Z,11.20
2017-10-24T03:32:27.621Z,10.03
2017-10-24T03:34:55.550Z,9.27
2017-10-24T03:37:23.500Z,12.00
2017-10-24T03:39:51.460Z,10.27
2017-10-24T03:42:19.411Z,13.57
2017-10-24T03:44:47.756Z,12.80
2017-10-24T03:47:15.671Z,10.43
2017-10-24T03:49:43.618Z,10.13
2017-10-24T03:52:11.569Z,11.57
2017-10-24T03:54:39.507Z,10.47
2017-10-24T03:57:07.474Z,13.57
2017-10-24T03:59:35.414Z,12.60
2017-10-24T04:02:03.364Z,11.00
2017-10-24T04:04:31.321Z,11.07
2017-10-24T04:06:59.314Z,13.43
2017-10-24T04:09:27.244Z,10.13
2017-10-24T04:11:55.216Z,10.80
2017-10-24T04:14:23.129Z,11.20
2017-10-24T04:16:51.062Z,12.67
2017-10-24T04:19:19.161Z,14.50
2017-10-24T04:21:47.071Z,10.40
2017-10-24T04:24:14.999Z,10.33
2017-10-24T04:26:42.931Z,10.43
2017-10-24T04:29:10.878Z,11.00
2017-10-24T04:31:38.809Z,12.63
2017-10-24T04:34:06.788Z,10.50
2017-10-24T04:36:34.738Z,16.30
2017-10-24T04:39:02.666Z,12.87
2017-10-24T04:41:30.621Z,10.83
2017-10-24T04:43:58.942Z,13.97
2017-10-24T04:46:26.887Z,11.43
2017-10-24T04:48:54.818Z,11.97
2017-10-24T04:51:22.771Z,13.33
2017-10-24T04:53:50.731Z,12.40
2017-10-24T04:56:18.651Z,11.73
2017-10-24T04:58:46.579Z,13.93
2017-10-24T05:01:14.522Z,14.13
2017-10-24T05:03:42.452Z,10.37
2017-10-24T05:06:10.439Z,12.93
2017-10-24T05:08:38.354Z,12.33
2017-10-24T05:11:06.310Z,11.80
2017-10-24T05:13:34.278Z,17.30
2017-10-24T05:16:02.225Z,13.83
2017-10-24T05:18:30.385Z,13.03
2017-10-24T05:20:58.326Z,13.50
2017-10-24T05:23:26.318Z,13.27
2017-10-24T05:25:54.257Z,12.87
2017-10-24T05:28:22.205Z,14.63
2017-10-24T05:30:50.163Z,13.70
2017-10-24T05:33:18.135Z,13.00
2017-10-24T05:35:46.112Z,12.07
2017-10-24T05:38:14.055Z,14.63
2017-10-24T05:40:42.042Z,14.93
2017-10-24T05:43:09.968Z,15.60
2017-10-24T05:45:37.939Z,15.83
2017-10-24T05:48:05.882Z,14.20
2017-10-24T05:50:33.828Z,15.00
2017-10-24T05:53:01.763Z,15.90
2017-10-24T05:55:29.706Z,18.47
2017-10-24T05:57:57.762Z,14.30
2017-10-24T06:00:26.011Z,15.93
2017-10-24T06:02:53.974Z,13.93
2017-10-24T06:05:21.989Z,14.53
2017-10-24T06:07:50.024Z,15.57
2017-10-24T06:10:18.141Z,16.13
2017-10-24T06:12:46.139Z,15.83
2017-10-24T06:15:14.091Z,17.00
2017-10-24T06:17:42.037Z,18.73
2017-10-24T06:20:09.990Z,15.27
2017-10-24T06:22:37.958Z,16.73
2017-10-24T06:25:05.902Z,18.27
2017-10-24T06:27:34.623Z,17.13
2017-10-24T06:30:02.554Z,20.00
2017-10-24T06:32:30.488Z,17.77
2017-10-24T06:34:59.059Z,22.40
2017-10-24T06:37:27.033Z,21.87
2017-10-24T06:39:55.704Z,23.80
2017-10-24T06:42:24.261Z,22.27
2017-10-24T06:44:52.235Z,23.40
2017-10-24T06:47:20.913Z,19.80
2017-10-24T06:49:48.821Z,22.93
2017-10-24T06:52:16.815Z,24.43
2017-10-24T06:54:44.791Z,21.93
2017-10-24T06:57:12.785Z,28.60
2017-10-24T06:59:40.774Z,27.80
2017-10-24T07:02:08.710Z,25.70
2017-10-24T07:04:36.636Z,27.60
2017-10-24T07:07:04.613Z,26.83
2017-10-24T07:09:32.835Z,25.50
2017-10-24T07:12:00.842Z,26.70
2017-10-24T07:14:28.779Z,27.67
2017-10-24T07:16:56.715Z,25.73
2017-10-24T07:19:24.636Z,29.80
2017-10-24T07:21:52.592Z,26.10
2017-10-24T07:24:20.513Z,34.17
2017-10-24T07:26:48.446Z,29.03
2017-10-24T07:31:51.534Z,35.03
2017-10-24T07:34:19.462Z,36.37
2017-10-24T07:36:47.388Z,37.30
2017-10-24T07:39:15.357Z,37.53
2017-10-24T07:41:43.296Z,33.80
2017-10-24T07:44:11.642Z,38.00
2017-10-24T07:46:39.675Z,41.20
2017-10-24T07:49:07.612Z,39.90
2017-10-24T07:51:35.633Z,34.70
2017-10-24T07:54:03.565Z,37.87
2017-10-24T07:56:31.508Z,37.13
2017-10-24T07:58:59.447Z,34.33
2017-10-24T08:01:27.550Z,35.30
2017-10-24T08:03:55.496Z,46.20
2017-10-24T08:06:23.468Z,40.03
2017-10-24T08:08:51.397Z,35.07
2017-10-24T08:11:19.335Z,42.60
2017-10-24T08:13:47.331Z,38.20
2017-10-24T08:16:15.269Z,44.30
2017-10-24T08:18:43.233Z,37.00
2017-10-24T08:21:11.242Z,46.27
2017-10-24T08:23:39.202Z,37.23
2017-10-24T08:26:07.140Z,35.60
2017-10-24T08:28:35.087Z,37.30
2017-10-24T08:31:03.042Z,35.87
2017-10-24T08:33:31.080Z,38.37
2017-10-24T08:35:59.001Z,34.60
2017-10-24T08:38:26.940Z,33.77
2017-10-24T08:40:55.029Z,32.40
2017-10-24T08:43:22.985Z,37.57
2017-10-24T08:45:50.904Z,31.13
2017-10-24T08:48:18.861Z,32.53
2017-10-24T08:50:46.827Z,29.30
2017-10-24T08:53:14.823Z,28.23
2017-10-24T08:55:42.766Z,33.63
2017-10-24T08:58:10.684Z,32.20
2017-10-24T09:00:38.663Z,31.87
2017-10-24T09:03:06.632Z,29.47
2017-10-24T09:05:37.400Z,28.60
2017-10-24T09:08:05.364Z,33.80
2017-10-24T09:14:05.211Z,26.80
2017-10-24T09:16:40.846Z,28.83
2017-10-24T09:22:20.891Z,25.07
2017-10-24T09:24:48.898Z,26.97
2017-10-24T09:27:16.806Z,27.87
2017-10-24T09:29:44.776Z,30.43
2017-10-24T09:32:12.827Z,24.93
2017-10-24T09:34:41.081Z,25.23
2017-10-24T09:37:09.038Z,28.97
2017-10-24T09:39:37.005Z,28.37
2017-10-24T09:42:04.957Z,27.03
2017-10-24T09:44:33.015Z,29.20
2017-10-24T09:47:00.927Z,24.33
2017-10-24T09:49:28.858Z,29.63
2017-10-24T09:51:56.839Z,27.50
2017-10-24T09:54:24.755Z,25.47
2017-10-24T09:56:52.798Z,25.13
2017-10-24T09:59:36.407Z,28.43
2017-10-24T10:02:04.360Z,25.53
2017-10-24T10:04:32.318Z,24.10
2017-10-24T10:07:02.009Z,25.53
2017-10-24T10:09:29.941Z,26.80
2017-10-24T10:11:57.887Z,24.60
2017-10-24T10:14:25.839Z,23.83
2017-10-24T10:16:53.910Z,22.23
2017-10-24T10:19:21.828Z,23.33
2017-10-24T10:21:51.383Z,25.43
2017-10-24T10:24:36.407Z,23.23
2017-10-24T10:27:04.371Z,23.97
2017-10-24T10:29:32.338Z,24.93
2017-10-24T10:32:00.380Z,24.43
2017-10-24T10:34:28.352Z,23.93
2017-10-24T10:36:56.277Z,21.50
2017-10-24T10:39:24.202Z,21.43
2017-10-24T10:41:52.161Z,18.97
2017-10-24T10:44:20.100Z,18.40
2017-10-24T10:46:48.062Z,20.00
2017-10-24T10:49:15.984Z,18.77
2017-10-24T10:51:43.937Z,18.00
2017-10-24T10:54:12.056Z,15.53
2017-10-24T10:56:40.032Z,16.80
2017-10-24T10:59:08.239Z,17.10
2017-10-24T11:01:36.166Z,18.23
2017-10-24T11:04:04.109Z,17.63
2017-10-24T11:06:32.030Z,21.37
2017-10-24T11:08:59.977Z,18.03
2017-10-24T11:11:27.925Z,18.60
2017-10-24T11:13:55.828Z,21.30
2017-10-24T11:16:23.791Z,18.80
2017-10-24T11:18:51.747Z,18.23
2017-10-24T11:21:19.734Z,18.43
2017-10-24T11:23:47.695Z,17.10
2017-10-24T11:26:15.677Z,13.13
2017-10-24T11:28:43.585Z,17.10
2017-10-24T11:31:11.514Z,14.00
2017-10-24T11:33:39.464Z,17.23
2017-10-24T11:36:07.392Z,16.80
2017-10-24T11:38:35.322Z,18.53
2017-10-24T11:41:03.361Z,15.03
2017-10-24T11:43:31.534Z,19.90
2017-10-24T11:45:59.531Z,18.57
2017-10-24T11:48:27.458Z,14.83
2017-10-24T11:50:55.415Z,15.93
2017-10-24T11:53:23.371Z,16.47
2017-10-24T11:55:51.351Z,17.80
2017-10-24T11:58:19.285Z,16.40
2017-10-24T12:00:47.224Z,15.80
2017-10-24T12:03:15.189Z,19.03
2017-10-24T12:05:43.140Z,16.50
2017-10-24T12:08:11.078Z,16.57
2017-10-24T12:10:39.086Z,18.10
2017-10-24T12:13:07.207Z,16.77
2017-10-24T12:15:35.173Z,16.20
2017-10-24T12:18:03.141Z,18.03
2017-10-24T12:20:31.190Z,19.87
2017-10-24T12:22:59.118Z,18.80
2017-10-24T12:25:27.305Z,19.50
2017-10-24T12:27:55.683Z,18.70
2017-10-24T12:30:23.825Z,17.20
2017-10-24T12:32:51.855Z,16.00
2017-10-24T12:35:19.904Z,18.20
2017-10-24T12:37:47.877Z,17.50
2017-10-24T12:40:16.601Z,17.60
2017-10-24T12:42:44.868Z,15.40
2017-10-24T12:45:23.631Z,16.90
2017-10-24T12:47:51.742Z,17.53
2017-10-24T12:50:30.602Z,16.13
2017-10-24T12:52:58.544Z,19.37
2017-10-24T12:55:26.503Z,19.27
2017-10-24T12:57:54.460Z,16.70
2017-10-24T13:00:22.433Z,18.30
2017-10-24T13:02:50.462Z,17.37
2017-10-24T13:05:19.195Z,15.80
2017-10-24T13:07:47.132Z,17.47
2017-10-24T13:10:15.104Z,19.70
2017-10-24T13:12:43.089Z,19.67
2017-10-24T13:15:11.016Z,19.93
2017-10-24T13:17:38.943Z,17.70
2017-10-24T13:20:06.862Z,17.83
2017-10-24T13:22:35.099Z,17.87
2017-10-24T13:25:03.021Z,21.20
2017-10-24T13:27:31.120Z,15.90
2017-10-24T13:29:59.107Z,17.63
2017-10-24T13:32:27.081Z,20.67
2017-10-24T13:34:55.026Z,20.57
2017-10-24T13:37:22.949Z,20.47
2017-10-24T13:39:50.991Z,21.07
2017-10-24T13:42:18.974Z,23.33
2017-10-24T13:44:47.268Z,19.63
2017-10-24T13:47:15.232Z,16.20
2017-10-24T13:49:43.313Z,20.13
2017-10-24T13:52:11.253Z,19.23
2017-10-24T13:54:39.223Z,19.00
2017-10-24T13:57:07.289Z,17.33
2017-10-24T13:59:35.249Z,20.30
2017-10-24T14:02:03.231Z,19.50
2017-10-24T14:04:36.736Z,19.10
2017-10-24T14:07:10.257Z,20.97
2017-10-24T14:09:43.840Z,17.90
2017-10-24T14:12:12.004Z,19.87
2017-10-24T14:14:39.965Z,19.90
2017-10-24T14:17:07.919Z,19.27
2017-10-24T14:19:35.893Z,20.17
2017-10-24T14:22:03.846Z,19.23
2017-10-24T14:24:31.846Z,15.50
2017-10-24T14:26:59.761Z,18.20
2017-10-24T14:29:27.683Z,16.63
2017-10-24T14:31:56.665Z,18.97
2017-10-24T14:34:24.647Z,19.20
2017-10-24T14:36:53.167Z,18.70
2017-10-24T14:39:21.098Z,18.07
2017-10-24T14:41:49.022Z,18.17
2017-10-24T14:44:16.979Z,18.47
2017-10-24T14:46:44.991Z,17.10
2017-10-24T14:49:12.956Z,19.93
2017-10-24T14:51:40.890Z,18.60
2017-10-24T14:54:08.839Z,21.90
2017-10-24T14:56:36.814Z,20.23
2017-10-24T14:59:04.859Z,23.00
2017-10-24T15:01:32.790Z,23.13
2017-10-24T15:04:00.748Z,30.80
2017-10-24T15:06:29.061Z,26.80
2017-10-24T15:08:57.172Z,27.40
2017-10-24T15:11:25.167Z,28.60
2017-10-24T15:13:53.139Z,33.30
2017-10-24T15:16:21.115Z,30.97
2017-10-24T15:18:49.166Z,30.80
2017-10-24T15:21:17.114Z,32.87
2017-10-24T15:23:45.115Z,31.63
2017-10-24T15:26:13.052Z,33.87
2017-10-24T15:28:41.008Z,31.30
2017-10-24T15:31:09.001Z,29.60
2017-10-24T15:33:36.952Z,30.17
2017-10-24T15:36:04.964Z,33.93
2017-10-24T15:38:32.908Z,31.60
2017-10-24T15:41:00.922Z,34.13
2017-10-24T15:43:28.957Z,36.83
2017-10-24T15:45:57.326Z,36.83
2017-10-24T15:48:25.404Z,34.73
2017-10-24T15:50:53.419Z,36.57
2017-10-24T15:53:21.991Z,34.53
2017-10-24T15:55:50.172Z,35.90
2017-10-24T15:58:18.850Z,40.30
2017-10-24T16:00:47.121Z,35.70
2017-10-24T16:03:15.084Z,29.93
2017-10-24T16:05:43.098Z,34.57
2017-10-24T16:08:11.171Z,32.03
2017-10-24T16:10:39.143Z,32.47
2017-10-24T16:13:07.088Z,39.63
2017-10-24T16:15:35.068Z,34.67
2017-10-24T16:18:02.997Z,34.80
2017-10-24T16:20:31.109Z,39.37
2017-10-24T16:22:59.762Z,35.40
2017-10-24T16:25:27.777Z,42.07
2017-10-24T16:27:55.736Z,38.50
2017-10-24T16:30:23.723Z,38.33
2017-10-24T16:32:51.832Z,46.87
2017-10-24T16:35:19.764Z,38.50
2017-10-24T16:37:47.718Z,36.90
2017-10-24T16:40:15.670Z,40.20
2017-10-24T16:42:43.679Z,43.90
2017-10-24T16:45:11.661Z,44.87
2017-10-24T16:47:39.593Z,38.30
2017-10-24T16:50:07.520Z,40.30
2017-10-24T16:52:35.533Z,40.97
2017-10-24T16:55:03.477Z,42.47
2017-10-24T16:57:31.955Z,48.60
2017-10-24T17:00:00.056Z,44.77
2017-10-24T17:02:27.999Z,39.30
2017-10-24T17:04:55.966Z,49.80
2017-10-24T17:07:23.924Z,41.77
2017-10-24T17:09:51.856Z,41.90
2017-10-24T17:12:19.798Z,48.47
2017-10-24T17:14:47.801Z,49.43
2017-10-24T17:17:15.717Z,45.13
2017-10-24T17:19:43.734Z,48.90
2017-10-24T17:22:12.298Z,52.70
2017-10-24T17:24:40.327Z,43.40
2017-10-24T17:27:08.332Z,45.60
2017-10-24T17:29:36.285Z,52.30
2017-10-24T17:32:04.251Z,44.87
2017-10-24T17:34:32.194Z,45.23
2017-10-24T17:37:00.173Z,49.20
2017-10-24T17:39:28.292Z,44.20
2017-10-24T17:41:56.283Z,47.40
2017-10-24T17:44:24.415Z,48.57
2017-10-24T17:46:52.334Z,48.97
2017-10-24T17:49:20.291Z,43.70
2017-10-24T17:51:48.234Z,45.90
2017-10-24T17:54:16.197Z,47.00
2017-10-24T17:56:44.118Z,41.13
2017-10-24T17:59:12.079Z,45.37
2017-10-24T18:01:40.038Z,47.83
2017-10-24T18:04:07.995Z,44.53
2017-10-24T18:06:36.003Z,38.90
2017-10-24T18:09:04.155Z,44.50
2017-10-24T18:11:34.752Z,41.10
2017-10-24T18:14:02.655Z,38.90
2017-10-24T18:16:30.607Z,36.27
2017-10-24T18:18:58.574Z,35.53
2017-10-24T18:21:26.523Z,33.03
2017-10-24T18:23:54.817Z,35.83
2017-10-24T18:26:22.769Z,32.60
2017-10-24T18:28:50.786Z,37.83
2017-10-24T18:31:18.873Z,34.80
2017-10-24T18:33:46.856Z,39.00
2017-10-24T18:36:14.817Z,38.13
2017-10-24T18:38:42.799Z,40.37
2017-10-24T18:41:10.755Z,36.33
2017-10-24T18:43:38.734Z,39.63
2017-10-24T18:46:06.696Z,34.87
2017-10-24T18:48:34.643Z,37.40
2017-10-24T18:51:02.576Z,38.27
2017-10-24T18:53:30.545Z,37.90
2017-10-24T18:55:58.595Z,37.43
2017-10-24T18:58:29.528Z,39.87
2017-10-24T19:00:58.640Z,40.40
2017-10-24T19:03:26.580Z,34.37
2017-10-24T19:05:54.960Z,41.77
2017-10-24T19:08:23.075Z,37.00
2017-10-24T19:10:51.043Z,38.47
2017-10-24T19:13:19.055Z,40.53
2017-10-24T19:15:47.052Z,41.50
2017-10-24T19:18:15.228Z,41.93
2017-10-24T19:20:43.364Z,50.53
2017-10-24T19:23:11.295Z,43.80
2017-10-24T19:25:39.783Z,45.10
2017-10-24T19:28:07.703Z,44.33
2017-10-24T19:30:35.709Z,41.47
2017-10-24T19:33:03.692Z,44.43
2017-10-24T19:35:31.665Z,47.53
2017-10-24T19:37:59.744Z,83.00
2017-10-24T19:40:27.743Z,57.63
2017-10-24T19:42:55.863Z,45.30
2017-10-24T19:45:23.823Z,45.47
2017-10-24T19:47:51.763Z,45.30
2017-10-24T19:50:19.719Z,43.37
2017-10-24T19:52:47.780Z,42.77
2017-10-24T19:55:15.839Z,39.93
2017-10-24T19:57:43.844Z,38.63
2017-10-24T20:00:11.857Z,41.83
2017-10-24T20:02:39.828Z,49.27
2017-10-24T20:05:07.760Z,38.97
2017-10-24T20:07:36.296Z,39.50
2017-10-24T20:10:04.263Z,39.47
2017-10-24T20:12:32.207Z,51.90
2017-10-24T20:15:00.141Z,36.13
2017-10-24T20:17:28.093Z,37.20
2017-10-24T20:19:56.627Z,32.70
2017-10-24T20:22:24.562Z,33.03
2017-10-24T20:24:52.587Z,31.20
2017-10-24T20:27:20.604Z,32.40
2017-10-24T20:29:48.556Z,26.33
2017-10-24T20:32:16.672Z,27.57
2017-10-24T20:34:44.675Z,27.50
2017-10-24T20:37:12.659Z,28.30
2017-10-24T20:39:40.695Z,26.47
2017-10-24T20:42:08.629Z,26.93
2017-10-24T20:44:36.578Z,25.70
2017-10-24T20:47:04.522Z,28.57
2017-10-24T20:49:32.481Z,32.70
2017-10-24T20:52:00.407Z,48.90
2017-10-24T20:54:28.415Z,28.17
2017-10-24T20:56:56.357Z,29.87
2017-10-24T20:59:24.290Z,28.47
2017-10-24T21:01:52.314Z,30.27
2017-10-24T21:04:20.284Z,32.50
2017-10-24T21:06:48.202Z,30.33
2017-10-24T21:09:16.170Z,30.93
2017-10-24T21:11:44.096Z,35.20
2017-10-24T21:14:12.054Z,33.97
2017-10-24T21:16:39.988Z,35.50
2017-10-24T21:19:07.935Z,32.73
2017-10-24T21:21:35.873Z,33.40
2017-10-24T21:24:03.828Z,40.33
2017-10-24T21:26:31.765Z,36.17
2017-10-24T21:28:59.807Z,38.30
2017-10-24T21:31:27.789Z,36.70
2017-10-24T21:33:55.719Z,37.43
2017-10-24T21:36:23.670Z,33.50
2017-10-24T21:38:51.650Z,36.53
2017-10-24T21:41:19.574Z,39.20
2017-10-24T21:43:47.662Z,40.00
2017-10-24T21:46:15.826Z,41.73
2017-10-24T21:48:43.801Z,41.07
2017-10-24T21:51:12.305Z,39.43
2017-10-24T21:53:40.270Z,43.60
2017-10-24T21:56:08.283Z,40.77
2017-10-24T21:58:36.239Z,40.97
2017-10-24T22:01:04.304Z,40.63
2017-10-24T22:03:32.227Z,37.67
2017-10-24T22:06:00.187Z,39.70
2017-10-24T22:08:28.123Z,35.27
2017-10-24T22:10:56.062Z,31.83
2017-10-24T22:13:25.703Z,35.63
2017-10-24T22:15:54.665Z,31.60
2017-10-24T22:18:22.634Z,28.93
2017-10-24T22:20:50.602Z,27.60
2017-10-24T22:23:18.543Z,28.50
2017-10-24T22:25:46.490Z,25.53
2017-10-24T22:28:14.409Z,25.47
2017-10-24T22:30:42.361Z,29.93
2017-10-24T22:33:10.307Z,26.17
2017-10-24T22:35:38.241Z,29.27
2017-10-24T22:38:06.259Z,25.27
2017-10-24T22:40:34.181Z,23.90
2017-10-24T22:43:02.129Z,25.17
2017-10-24T22:45:30.079Z,25.10
2017-10-24T22:47:59.316Z,29.80
2017-10-24T22:50:27.268Z,23.53
2017-10-24T22:52:55.383Z,26.57
2017-10-24T22:55:23.442Z,24.20
2017-10-24T22:57:51.545Z,20.10
2017-10-24T23:00:19.979Z,22.43
2017-10-24T23:02:48.068Z,21.10
2017-10-24T23:05:15.988Z,19.70
2017-10-24T23:07:43.978Z,19.67
2017-10-24T23:10:11.936Z,22.03
2017-10-24T23:12:39.926Z,20.73
2017-10-24T23:15:07.865Z,19.90
2017-10-24T23:17:35.796Z,19.90
2017-10-24T23:20:03.760Z,19.83
2017-10-24T23:22:39.901Z,18.87
2017-10-24T23:25:07.874Z,22.07
2017-10-24T23:27:35.774Z,20.17
2017-10-24T23:30:03.771Z,23.43
2017-10-24T23:32:31.717Z,21.77
2017-10-24T23:34:59.744Z,22.50
2017-10-24T23:37:27.816Z,22.50
2017-10-24T23:39:55.805Z,22.30
2017-10-24T23:42:23.786Z,21.50
2017-10-24T23:44:51.927Z,21.07
2017-10-24T23:47:19.864Z,22.40
2017-10-24T23:49:47.900Z,20.80
2017-10-24T23:52:15.861Z,23.77
2017-10-24T23:54:44.052Z,22.20
2017-10-24T23:57:12.011Z,21.17
2017-10-24T23:59:39.972Z,20.60
